sensor_id;sensor_type;location;lat;lon;timestamp;P1;durP1;ratioP1;P2;durP2;ratioP2
71148;SDS011;59072;42.144;25.200;2023-10-13T00:01:19;12.00;;;6.68;;
71148;SDS011;59072;42.144;25.200;2023-10-13T00:03:45;14.25;;;6.60;;
71148;SDS011;59072;42.144;25.200;2023-10-13T00:06:10;16.02;;;6.47;;
71148;SDS011;59072;42.144;25.200;2023-10-13T00:08:36;16.30;;;7.30;;
71148;SDS011;59072;42.144;25.200;2023-10-13T00:11:02;14.88;;;7.45;;
71148;SDS011;59072;42.144;25.200;2023-10-13T00:13:28;14.55;;;7.00;;
71148;SDS011;59072;42.144;25.200;2023-10-13T00:15:56;16.35;;;8.85;;
71148;SDS011;59072;42.144;25.200;2023-10-13T00:18:26;16.42;;;9.02;;
71148;SDS011;59072;42.144;25.200;2023-10-13T00:20:59;24.92;;;9.48;;
71148;SDS011;59072;42.144;25.200;2023-10-13T00:23:25;16.33;;;8.63;;
71148;SDS011;59072;42.144;25.200;2023-10-13T00:25:54;17.80;;;9.13;;
71148;SDS011;59072;42.144;25.200;2023-10-13T00:28:26;21.20;;;9.45;;
71148;SDS011;59072;42.144;25.200;2023-10-13T00:31:00;18.95;;;8.95;;
71148;SDS011;59072;42.144;25.200;2023-10-13T00:33:29;16.50;;;8.65;;
71148;SDS011;59072;42.144;25.200;2023-10-13T00:35:57;13.03;;;8.47;;
71148;SDS011;59072;42.144;25.200;2023-10-13T00:38:23;17.70;;;9.20;;
71148;SDS011;59072;42.144;25.200;2023-10-13T00:40:49;15.27;;;9.25;;
71148;SDS011;59072;42.144;25.200;2023-10-13T00:43:19;20.05;;;10.43;;
71148;SDS011;59072;42.144;25.200;2023-10-13T00:45:56;22.70;;;10.55;;
71148;SDS011;59072;42.144;25.200;2023-10-13T00:51:03;19.95;;;11.20;;
71148;SDS011;59072;42.144;25.200;2023-10-13T00:53:36;17.10;;;11.48;;
71148;SDS011;59072;42.144;25.200;2023-10-13T00:56:07;16.63;;;11.05;;
71148;SDS011;59072;42.144;25.200;2023-10-13T00:58:36;22.23;;;12.68;;
71148;SDS011;59072;42.144;25.200;2023-10-13T01:01:05;20.83;;;11.88;;
71148;SDS011;59072;42.144;25.200;2023-10-13T01:03:52;21.20;;;10.80;;
71148;SDS011;59072;42.144;25.200;2023-10-13T01:06:24;16.33;;;10.02;;
71148;SDS011;59072;42.144;25.200;2023-10-13T01:08:57;18.02;;;9.70;;
71148;SDS011;59072;42.144;25.200;2023-10-13T01:11:37;24.35;;;12.32;;
71148;SDS011;59072;42.144;25.200;2023-10-13T01:14:03;21.30;;;12.15;;
71148;SDS011;59072;42.144;25.200;2023-10-13T01:16:29;20.55;;;11.85;;
71148;SDS011;59072;42.144;25.200;2023-10-13T01:18:55;24.20;;;13.85;;
71148;SDS011;59072;42.144;25.200;2023-10-13T01:21:24;19.67;;;10.77;;
71148;SDS011;59072;42.144;25.200;2023-10-13T01:23:52;19.35;;;9.13;;
71148;SDS011;59072;42.144;25.200;2023-10-13T01:26:18;16.75;;;8.93;;
71148;SDS011;59072;42.144;25.200;2023-10-13T01:28:51;20.00;;;9.32;;
71148;SDS011;59072;42.144;25.200;2023-10-13T01:31:21;16.55;;;9.85;;
71148;SDS011;59072;42.144;25.200;2023-10-13T01:33:52;16.80;;;10.15;;
71148;SDS011;59072;42.144;25.200;2023-10-13T01:36:24;16.00;;;9.20;;
71148;SDS011;59072;42.144;25.200;2023-10-13T01:38:51;15.30;;;8.48;;
71148;SDS011;59072;42.144;25.200;2023-10-13T01:41:18;16.15;;;9.77;;
71148;SDS011;59072;42.144;25.200;2023-10-13T01:43:44;15.23;;;9.15;;
71148;SDS011;59072;42.144;25.200;2023-10-13T01:46:10;18.92;;;8.27;;
71148;SDS011;59072;42.144;25.200;2023-10-13T01:51:05;12.52;;;7.68;;
71148;SDS011;59072;42.144;25.200;2023-10-13T01:53:35;12.77;;;7.93;;
71148;SDS011;59072;42.144;25.200;2023-10-13T01:56:01;19.63;;;9.27;;
71148;SDS011;59072;42.144;25.200;2023-10-13T01:58:35;18.30;;;8.52;;
71148;SDS011;59072;42.144;25.200;2023-10-13T02:01:01;20.08;;;8.82;;
71148;SDS011;59072;42.144;25.200;2023-10-13T02:03:32;18.17;;;9.70;;
71148;SDS011;59072;42.144;25.200;2023-10-13T02:05:57;15.77;;;9.25;;
71148;SDS011;59072;42.144;25.200;2023-10-13T02:08:29;15.65;;;10.05;;
71148;SDS011;59072;42.144;25.200;2023-10-13T02:10:55;22.50;;;10.85;;
71148;SDS011;59072;42.144;25.200;2023-10-13T02:13:22;19.70;;;10.00;;
71148;SDS011;59072;42.144;25.200;2023-10-13T02:15:52;17.25;;;10.73;;
71148;SDS011;59072;42.144;25.200;2023-10-13T02:18:21;19.02;;;10.60;;
71148;SDS011;59072;42.144;25.200;2023-10-13T02:20:51;22.23;;;11.18;;
71148;SDS011;59072;42.144;25.200;2023-10-13T02:23:25;20.73;;;12.15;;
71148;SDS011;59072;42.144;25.200;2023-10-13T02:25:54;19.30;;;12.05;;
71148;SDS011;59072;42.144;25.200;2023-10-13T02:28:28;22.67;;;13.30;;
71148;SDS011;59072;42.144;25.200;2023-10-13T02:31:01;23.92;;;13.70;;
71148;SDS011;59072;42.144;25.200;2023-10-13T02:33:31;22.80;;;13.25;;
71148;SDS011;59072;42.144;25.200;2023-10-13T02:38:28;20.02;;;12.48;;
71148;SDS011;59072;42.144;25.200;2023-10-13T02:41:13;21.02;;;11.57;;
71148;SDS011;59072;42.144;25.200;2023-10-13T02:43:53;25.85;;;11.82;;
71148;SDS011;59072;42.144;25.200;2023-10-13T02:46:22;22.10;;;12.80;;
71148;SDS011;59072;42.144;25.200;2023-10-13T02:48:48;23.25;;;13.50;;
71148;SDS011;59072;42.144;25.200;2023-10-13T02:51:22;24.73;;;12.65;;
71148;SDS011;59072;42.144;25.200;2023-10-13T02:54:00;23.13;;;13.07;;
71148;SDS011;59072;42.144;25.200;2023-10-13T02:56:45;20.73;;;12.18;;
71148;SDS011;59072;42.144;25.200;2023-10-13T02:59:26;26.27;;;13.35;;
71148;SDS011;59072;42.144;25.200;2023-10-13T03:04:54;18.50;;;11.43;;
71148;SDS011;59072;42.144;25.200;2023-10-13T03:07:34;19.85;;;12.50;;
71148;SDS011;59072;42.144;25.200;2023-10-13T03:10:01;19.23;;;12.07;;
71148;SDS011;59072;42.144;25.200;2023-10-13T03:12:38;21.15;;;11.82;;
71148;SDS011;59072;42.144;25.200;2023-10-13T03:15:05;23.23;;;13.73;;
71148;SDS011;59072;42.144;25.200;2023-10-13T03:17:37;27.30;;;14.68;;
71148;SDS011;59072;42.144;25.200;2023-10-13T03:20:08;23.67;;;12.77;;
71148;SDS011;59072;42.144;25.200;2023-10-13T03:22:39;22.02;;;13.23;;
71148;SDS011;59072;42.144;25.200;2023-10-13T03:25:04;21.70;;;13.52;;
71148;SDS011;59072;42.144;25.200;2023-10-13T03:27:31;23.88;;;13.68;;
71148;SDS011;59072;42.144;25.200;2023-10-13T03:30:27;23.27;;;13.85;;
71148;SDS011;59072;42.144;25.200;2023-10-13T03:33:12;20.35;;;13.10;;
71148;SDS011;59072;42.144;25.200;2023-10-13T03:35:39;22.73;;;12.73;;
71148;SDS011;59072;42.144;25.200;2023-10-13T03:38:25;24.58;;;14.10;;
71148;SDS011;59072;42.144;25.200;2023-10-13T03:40:52;24.30;;;13.80;;
71148;SDS011;59072;42.144;25.200;2023-10-13T03:43:41;20.85;;;12.65;;
71148;SDS011;59072;42.144;25.200;2023-10-13T03:46:34;20.52;;;12.77;;
71148;SDS011;59072;42.144;25.200;2023-10-13T03:49:01;22.07;;;13.20;;
71148;SDS011;59072;42.144;25.200;2023-10-13T03:51:29;22.60;;;12.40;;
71148;SDS011;59072;42.144;25.200;2023-10-13T03:53:58;27.73;;;12.88;;
71148;SDS011;59072;42.144;25.200;2023-10-13T03:56:24;20.63;;;11.85;;
71148;SDS011;59072;42.144;25.200;2023-10-13T03:58:54;18.90;;;12.15;;
71148;SDS011;59072;42.144;25.200;2023-10-13T04:01:25;22.75;;;13.25;;
71148;SDS011;59072;42.144;25.200;2023-10-13T04:03:59;23.55;;;11.57;;
71148;SDS011;59072;42.144;25.200;2023-10-13T04:06:36;21.80;;;12.90;;
71148;SDS011;59072;42.144;25.200;2023-10-13T04:09:17;19.35;;;12.65;;
71148;SDS011;59072;42.144;25.200;2023-10-13T04:11:58;23.10;;;12.48;;
71148;SDS011;59072;42.144;25.200;2023-10-13T04:14:28;23.60;;;12.73;;
71148;SDS011;59072;42.144;25.200;2023-10-13T04:17:14;24.95;;;13.82;;
71148;SDS011;59072;42.144;25.200;2023-10-13T04:19:40;22.02;;;13.85;;
71148;SDS011;59072;42.144;25.200;2023-10-13T04:22:24;23.63;;;13.52;;
71148;SDS011;59072;42.144;25.200;2023-10-13T04:25:11;30.08;;;14.77;;
71148;SDS011;59072;42.144;25.200;2023-10-13T04:27:56;28.27;;;15.38;;
71148;SDS011;59072;42.144;25.200;2023-10-13T04:30:48;27.67;;;13.70;;
71148;SDS011;59072;42.144;25.200;2023-10-13T04:33:24;24.02;;;13.52;;
71148;SDS011;59072;42.144;25.200;2023-10-13T04:36:12;25.88;;;13.63;;
71148;SDS011;59072;42.144;25.200;2023-10-13T04:41:33;28.08;;;12.52;;
71148;SDS011;59072;42.144;25.200;2023-10-13T04:44:11;22.42;;;11.25;;
71148;SDS011;59072;42.144;25.200;2023-10-13T04:46:57;18.20;;;10.32;;
71148;SDS011;59072;42.144;25.200;2023-10-13T04:49:24;23.52;;;10.95;;
71148;SDS011;59072;42.144;25.200;2023-10-13T04:52:00;16.35;;;9.40;;
71148;SDS011;59072;42.144;25.200;2023-10-13T04:54:33;15.15;;;8.75;;
71148;SDS011;59072;42.144;25.200;2023-10-13T04:57:17;18.88;;;9.52;;
71148;SDS011;59072;42.144;25.200;2023-10-13T05:00:03;21.00;;;10.40;;
71148;SDS011;59072;42.144;25.200;2023-10-13T05:02:36;16.80;;;9.60;;
71148;SDS011;59072;42.144;25.200;2023-10-13T05:05:07;25.65;;;8.88;;
71148;SDS011;59072;42.144;25.200;2023-10-13T05:07:55;19.60;;;9.18;;
71148;SDS011;59072;42.144;25.200;2023-10-13T05:10:39;21.48;;;11.25;;
71148;SDS011;59072;42.144;25.200;2023-10-13T05:13:23;25.15;;;11.82;;
71148;SDS011;59072;42.144;25.200;2023-10-13T05:16:07;23.52;;;11.35;;
71148;SDS011;59072;42.144;25.200;2023-10-13T05:18:51;23.48;;;10.32;;
71148;SDS011;59072;42.144;25.200;2023-10-13T05:21:35;27.67;;;12.10;;
71148;SDS011;59072;42.144;25.200;2023-10-13T05:24:19;27.02;;;12.23;;
71148;SDS011;59072;42.144;25.200;2023-10-13T05:27:03;20.33;;;11.23;;
71148;SDS011;59072;42.144;25.200;2023-10-13T05:29:47;21.35;;;11.43;;
71148;SDS011;59072;42.144;25.200;2023-10-13T05:32:31;21.17;;;10.45;;
71148;SDS011;59072;42.144;25.200;2023-10-13T05:35:15;19.35;;;10.93;;
71148;SDS011;59072;42.144;25.200;2023-10-13T05:37:59;19.98;;;10.55;;
71148;SDS011;59072;42.144;25.200;2023-10-13T05:40:54;16.83;;;10.18;;
71148;SDS011;59072;42.144;25.200;2023-10-13T05:43:41;18.83;;;9.80;;
71148;SDS011;59072;42.144;25.200;2023-10-13T05:46:26;18.23;;;10.90;;
71148;SDS011;59072;42.144;25.200;2023-10-13T05:48:52;20.77;;;11.05;;
71148;SDS011;59072;42.144;25.200;2023-10-13T05:51:24;17.65;;;10.15;;
71148;SDS011;59072;42.144;25.200;2023-10-13T05:54:12;22.52;;;10.32;;
71148;SDS011;59072;42.144;25.200;2023-10-13T05:56:42;19.65;;;10.10;;
71148;SDS011;59072;42.144;25.200;2023-10-13T05:59:27;15.55;;;9.20;;
71148;SDS011;59072;42.144;25.200;2023-10-13T06:02:13;18.40;;;8.60;;
71148;SDS011;59072;42.144;25.200;2023-10-13T06:05:01;20.55;;;10.45;;
71148;SDS011;59072;42.144;25.200;2023-10-13T06:07:45;17.02;;;7.75;;
71148;SDS011;59072;42.144;25.200;2023-10-13T06:10:29;18.88;;;8.48;;
71148;SDS011;59072;42.144;25.200;2023-10-13T06:13:13;14.85;;;8.05;;
71148;SDS011;59072;42.144;25.200;2023-10-13T06:15:57;19.45;;;8.65;;
71148;SDS011;59072;42.144;25.200;2023-10-13T06:18:41;11.65;;;7.82;;
71148;SDS011;59072;42.144;25.200;2023-10-13T06:21:25;15.07;;;7.65;;
71148;SDS011;59072;42.144;25.200;2023-10-13T06:24:09;13.93;;;7.72;;
71148;SDS011;59072;42.144;25.200;2023-10-13T06:26:53;16.05;;;7.60;;
71148;SDS011;59072;42.144;25.200;2023-10-13T06:29:37;14.05;;;7.20;;
71148;SDS011;59072;42.144;25.200;2023-10-13T06:32:02;16.65;;;7.75;;
71148;SDS011;59072;42.144;25.200;2023-10-13T06:34:35;16.48;;;8.65;;
71148;SDS011;59072;42.144;25.200;2023-10-13T06:37:13;11.18;;;7.55;;
71148;SDS011;59072;42.144;25.200;2023-10-13T06:39:55;13.80;;;7.68;;
71148;SDS011;59072;42.144;25.200;2023-10-13T06:42:51;13.98;;;7.82;;
71148;SDS011;59072;42.144;25.200;2023-10-13T06:45:28;12.32;;;7.10;;
71148;SDS011;59072;42.144;25.200;2023-10-13T06:48:00;12.98;;;7.28;;
71148;SDS011;59072;42.144;25.200;2023-10-13T06:50:26;17.95;;;7.35;;
71148;SDS011;59072;42.144;25.200;2023-10-13T06:52:54;13.93;;;8.02;;
71148;SDS011;59072;42.144;25.200;2023-10-13T06:55:20;15.55;;;8.32;;
71148;SDS011;59072;42.144;25.200;2023-10-13T06:57:52;12.00;;;7.60;;
71148;SDS011;59072;42.144;25.200;2023-10-13T07:00:25;13.95;;;7.00;;
71148;SDS011;59072;42.144;25.200;2023-10-13T07:03:00;15.95;;;8.00;;
71148;SDS011;59072;42.144;25.200;2023-10-13T07:05:37;18.85;;;7.82;;
71148;SDS011;59072;42.144;25.200;2023-10-13T07:08:04;19.02;;;9.60;;
71148;SDS011;59072;42.144;25.200;2023-10-13T07:10:34;19.98;;;7.60;;
71148;SDS011;59072;42.144;25.200;2023-10-13T07:13:17;13.52;;;6.70;;
71148;SDS011;59072;42.144;25.200;2023-10-13T07:15:44;18.20;;;9.00;;
71148;SDS011;59072;42.144;25.200;2023-10-13T07:18:13;11.75;;;6.75;;
71148;SDS011;59072;42.144;25.200;2023-10-13T07:20:48;12.70;;;6.90;;
71148;SDS011;59072;42.144;25.200;2023-10-13T07:23:14;11.40;;;6.38;;
71148;SDS011;59072;42.144;25.200;2023-10-13T07:25:50;11.73;;;6.72;;
71148;SDS011;59072;42.144;25.200;2023-10-13T07:28:22;16.33;;;7.13;;
71148;SDS011;59072;42.144;25.200;2023-10-13T07:30:47;13.55;;;6.75;;
71148;SDS011;59072;42.144;25.200;2023-10-13T07:33:18;12.90;;;6.30;;
71148;SDS011;59072;42.144;25.200;2023-10-13T07:35:47;12.77;;;7.18;;
71148;SDS011;59072;42.144;25.200;2023-10-13T07:38:16;18.58;;;6.85;;
71148;SDS011;59072;42.144;25.200;2023-10-13T07:40:46;21.92;;;6.10;;
71148;SDS011;59072;42.144;25.200;2023-10-13T07:43:17;17.13;;;5.90;;
71148;SDS011;59072;42.144;25.200;2023-10-13T07:45:46;14.32;;;6.40;;
71148;SDS011;59072;42.144;25.200;2023-10-13T07:48:23;26.35;;;6.57;;
71148;SDS011;59072;42.144;25.200;2023-10-13T07:51:03;18.47;;;6.40;;
71148;SDS011;59072;42.144;25.200;2023-10-13T07:53:42;17.33;;;7.18;;
71148;SDS011;59072;42.144;25.200;2023-10-13T07:56:14;19.38;;;5.55;;
71148;SDS011;59072;42.144;25.200;2023-10-13T07:58:43;13.75;;;5.82;;
71148;SDS011;59072;42.144;25.200;2023-10-13T08:01:18;20.33;;;6.40;;
71148;SDS011;59072;42.144;25.200;2023-10-13T08:03:50;13.05;;;5.82;;
71148;SDS011;59072;42.144;25.200;2023-10-13T08:06:29;9.82;;;5.20;;
71148;SDS011;59072;42.144;25.200;2023-10-13T08:08:55;10.73;;;6.28;;
71148;SDS011;59072;42.144;25.200;2023-10-13T08:11:32;9.45;;;5.75;;
71148;SDS011;59072;42.144;25.200;2023-10-13T08:14:00;9.05;;;4.97;;
71148;SDS011;59072;42.144;25.200;2023-10-13T08:16:37;11.70;;;5.28;;
71148;SDS011;59072;42.144;25.200;2023-10-13T08:19:19;10.88;;;5.22;;
71148;SDS011;59072;42.144;25.200;2023-10-13T08:21:53;15.73;;;7.95;;
71148;SDS011;59072;42.144;25.200;2023-10-13T08:24:48;10.55;;;5.15;;
71148;SDS011;59072;42.144;25.200;2023-10-13T08:27:16;10.80;;;5.35;;
71148;SDS011;59072;42.144;25.200;2023-10-13T08:29:58;10.40;;;5.32;;
71148;SDS011;59072;42.144;25.200;2023-10-13T08:32:25;10.45;;;4.80;;
71148;SDS011;59072;42.144;25.200;2023-10-13T08:34:51;13.15;;;5.35;;
71148;SDS011;59072;42.144;25.200;2023-10-13T08:37:23;13.20;;;5.13;;
71148;SDS011;59072;42.144;25.200;2023-10-13T08:39:49;8.45;;;4.72;;
71148;SDS011;59072;42.144;25.200;2023-10-13T08:42:31;10.07;;;4.50;;
71148;SDS011;59072;42.144;25.200;2023-10-13T08:45:09;9.57;;;4.88;;
71148;SDS011;59072;42.144;25.200;2023-10-13T08:47:59;10.52;;;4.65;;
71148;SDS011;59072;42.144;25.200;2023-10-13T08:56:08;9.67;;;4.63;;
71148;SDS011;59072;42.144;25.200;2023-10-13T08:58:35;11.48;;;4.05;;
71148;SDS011;59072;42.144;25.200;2023-10-13T09:06:44;7.70;;;4.43;;
71148;SDS011;59072;42.144;25.200;2023-10-13T09:09:23;9.20;;;4.30;;
71148;SDS011;59072;42.144;25.200;2023-10-13T09:12:14;7.72;;;4.20;;
71148;SDS011;59072;42.144;25.200;2023-10-13T09:14:42;9.70;;;4.25;;
71148;SDS011;59072;42.144;25.200;2023-10-13T09:17:21;11.07;;;4.35;;
71148;SDS011;59072;42.144;25.200;2023-10-13T09:25:32;10.35;;;4.60;;
71148;SDS011;59072;42.144;25.200;2023-10-13T09:27:59;20.23;;;10.60;;
71148;SDS011;59072;42.144;25.200;2023-10-13T09:30:25;7.50;;;4.60;;
71148;SDS011;59072;42.144;25.200;2023-10-13T09:33:03;9.07;;;4.13;;
71148;SDS011;59072;42.144;25.200;2023-10-13T09:35:30;8.10;;;4.40;;
71148;SDS011;59072;42.144;25.200;2023-10-13T09:37:59;11.20;;;4.32;;
71148;SDS011;59072;42.144;25.200;2023-10-13T09:40:27;7.93;;;3.78;;
71148;SDS011;59072;42.144;25.200;2023-10-13T09:43:03;8.70;;;4.00;;
71148;SDS011;59072;42.144;25.200;2023-10-13T09:45:40;11.43;;;5.60;;
71148;SDS011;59072;42.144;25.200;2023-10-13T09:48:22;10.50;;;4.03;;
71148;SDS011;59072;42.144;25.200;2023-10-13T09:50:59;8.25;;;4.10;;
71148;SDS011;59072;42.144;25.200;2023-10-13T09:53:28;8.80;;;4.20;;
71148;SDS011;59072;42.144;25.200;2023-10-13T09:58:51;8.88;;;4.03;;
71148;SDS011;59072;42.144;25.200;2023-10-13T10:01:26;8.10;;;3.80;;
71148;SDS011;59072;42.144;25.200;2023-10-13T10:04:07;9.25;;;3.67;;
71148;SDS011;59072;42.144;25.200;2023-10-13T10:06:34;6.22;;;3.80;;
71148;SDS011;59072;42.144;25.200;2023-10-13T10:09:09;11.23;;;4.05;;
71148;SDS011;59072;42.144;25.200;2023-10-13T10:19:27;8.80;;;3.88;;
71148;SDS011;59072;42.144;25.200;2023-10-13T10:22:03;8.10;;;3.90;;
71148;SDS011;59072;42.144;25.200;2023-10-13T10:24:41;6.97;;;4.05;;
71148;SDS011;59072;42.144;25.200;2023-10-13T10:27:08;7.60;;;4.40;;
71148;SDS011;59072;42.144;25.200;2023-10-13T10:29:39;10.60;;;4.05;;
71148;SDS011;59072;42.144;25.200;2023-10-13T10:32:20;5.60;;;4.03;;
71148;SDS011;59072;42.144;25.200;2023-10-13T10:34:46;9.75;;;4.10;;
71148;SDS011;59072;42.144;25.200;2023-10-13T10:37:12;8.23;;;4.40;;
71148;SDS011;59072;42.144;25.200;2023-10-13T10:39:38;7.10;;;3.85;;
71148;SDS011;59072;42.144;25.200;2023-10-13T10:42:14;8.40;;;4.10;;
71148;SDS011;59072;42.144;25.200;2023-10-13T10:44:41;7.65;;;3.92;;
71148;SDS011;59072;42.144;25.200;2023-10-13T10:47:10;8.98;;;4.07;;
71148;SDS011;59072;42.144;25.200;2023-10-13T10:49:57;7.55;;;3.83;;
71148;SDS011;59072;42.144;25.200;2023-10-13T10:52:32;8.30;;;3.97;;
71148;SDS011;59072;42.144;25.200;2023-10-13T10:55:04;7.57;;;4.13;;
71148;SDS011;59072;42.144;25.200;2023-10-13T10:57:34;8.48;;;3.55;;
71148;SDS011;59072;42.144;25.200;2023-10-13T11:00:05;9.30;;;4.25;;
71148;SDS011;59072;42.144;25.200;2023-10-13T11:02:40;8.38;;;4.35;;
71148;SDS011;59072;42.144;25.200;2023-10-13T11:05:06;7.45;;;3.92;;
71148;SDS011;59072;42.144;25.200;2023-10-13T11:07:34;7.30;;;4.20;;
71148;SDS011;59072;42.144;25.200;2023-10-13T11:10:10;8.02;;;4.13;;
71148;SDS011;59072;42.144;25.200;2023-10-13T11:12:58;7.95;;;3.83;;
71148;SDS011;59072;42.144;25.200;2023-10-13T11:15:44;15.50;;;4.50;;
71148;SDS011;59072;42.144;25.200;2023-10-13T11:18:10;8.90;;;4.30;;
71148;SDS011;59072;42.144;25.200;2023-10-13T11:20:46;7.15;;;4.55;;
71148;SDS011;59072;42.144;25.200;2023-10-13T11:23:15;10.68;;;4.85;;
71148;SDS011;59072;42.144;25.200;2023-10-13T11:25:40;8.90;;;4.28;;
71148;SDS011;59072;42.144;25.200;2023-10-13T11:28:16;17.50;;;7.45;;
71148;SDS011;59072;42.144;25.200;2023-10-13T11:30:42;24.70;;;15.95;;
71148;SDS011;59072;42.144;25.200;2023-10-13T11:33:14;17.35;;;10.10;;
71148;SDS011;59072;42.144;25.200;2023-10-13T11:35:43;17.40;;;9.23;;
71148;SDS011;59072;42.144;25.200;2023-10-13T11:40:57;9.68;;;4.75;;
71148;SDS011;59072;42.144;25.200;2023-10-13T11:46:09;11.63;;;7.55;;
71148;SDS011;59072;42.144;25.200;2023-10-13T11:48:35;12.93;;;7.00;;
71148;SDS011;59072;42.144;25.200;2023-10-13T11:51:04;11.82;;;6.38;;
71148;SDS011;59072;42.144;25.200;2023-10-13T11:53:37;14.48;;;6.70;;
71148;SDS011;59072;42.144;25.200;2023-10-13T11:56:03;11.25;;;5.20;;
71148;SDS011;59072;42.144;25.200;2023-10-13T11:58:36;8.90;;;4.15;;
71148;SDS011;59072;42.144;25.200;2023-10-13T12:01:05;8.10;;;4.35;;
71148;SDS011;59072;42.144;25.200;2023-10-13T12:03:40;10.23;;;5.20;;
71148;SDS011;59072;42.144;25.200;2023-10-13T12:06:27;18.70;;;10.80;;
71148;SDS011;59072;42.144;25.200;2023-10-13T12:09:03;12.40;;;6.68;;
71148;SDS011;59072;42.144;25.200;2023-10-13T12:11:56;11.25;;;6.32;;
71148;SDS011;59072;42.144;25.200;2023-10-13T12:14:25;10.70;;;5.97;;
71148;SDS011;59072;42.144;25.200;2023-10-13T12:16:57;10.02;;;5.28;;
71148;SDS011;59072;42.144;25.200;2023-10-13T12:19:31;10.98;;;5.60;;
71148;SDS011;59072;42.144;25.200;2023-10-13T12:21:56;13.48;;;6.82;;
71148;SDS011;59072;42.144;25.200;2023-10-13T12:24:28;15.40;;;6.90;;
71148;SDS011;59072;42.144;25.200;2023-10-13T12:27:17;11.13;;;6.82;;
71148;SDS011;59072;42.144;25.200;2023-10-13T12:29:47;15.40;;;7.10;;
71148;SDS011;59072;42.144;25.200;2023-10-13T12:32:13;16.02;;;6.88;;
71148;SDS011;59072;42.144;25.200;2023-10-13T12:34:40;11.63;;;6.05;;
71148;SDS011;59072;42.144;25.200;2023-10-13T12:37:24;10.18;;;5.93;;
71148;SDS011;59072;42.144;25.200;2023-10-13T12:40:06;10.15;;;5.57;;
71148;SDS011;59072;42.144;25.200;2023-10-13T12:42:51;9.07;;;5.38;;
71148;SDS011;59072;42.144;25.200;2023-10-13T12:45:41;10.15;;;5.88;;
71148;SDS011;59072;42.144;25.200;2023-10-13T12:48:26;13.32;;;5.85;;
71148;SDS011;59072;42.144;25.200;2023-10-13T12:51:10;7.43;;;3.92;;
71148;SDS011;59072;42.144;25.200;2023-10-13T12:53:54;7.85;;;3.92;;
71148;SDS011;59072;42.144;25.200;2023-10-13T12:56:20;8.27;;;4.25;;
71148;SDS011;59072;42.144;25.200;2023-10-13T12:58:51;9.68;;;4.00;;
71148;SDS011;59072;42.144;25.200;2023-10-13T13:01:19;7.05;;;3.60;;
71148;SDS011;59072;42.144;25.200;2023-10-13T13:03:46;7.78;;;3.60;;
71148;SDS011;59072;42.144;25.200;2023-10-13T13:06:19;7.53;;;3.53;;
71148;SDS011;59072;42.144;25.200;2023-10-13T13:08:54;5.82;;;3.33;;
71148;SDS011;59072;42.144;25.200;2023-10-13T13:11:20;7.03;;;3.40;;
71148;SDS011;59072;42.144;25.200;2023-10-13T13:13:46;6.95;;;3.30;;
71148;SDS011;59072;42.144;25.200;2023-10-13T13:16:14;8.15;;;3.20;;
71148;SDS011;59072;42.144;25.200;2023-10-13T13:18:49;8.85;;;3.58;;
71148;SDS011;59072;42.144;25.200;2023-10-13T13:21:15;7.93;;;3.47;;
71148;SDS011;59072;42.144;25.200;2023-10-13T13:23:46;12.55;;;7.95;;
71148;SDS011;59072;42.144;25.200;2023-10-13T13:26:12;7.50;;;3.88;;
71148;SDS011;59072;42.144;25.200;2023-10-13T13:28:47;8.23;;;3.13;;
71148;SDS011;59072;42.144;25.200;2023-10-13T13:31:19;6.80;;;3.53;;
71148;SDS011;59072;42.144;25.200;2023-10-13T13:33:50;6.63;;;2.70;;
71148;SDS011;59072;42.144;25.200;2023-10-13T13:36:15;10.70;;;6.10;;
71148;SDS011;59072;42.144;25.200;2023-10-13T13:38:43;4.32;;;2.33;;
71148;SDS011;59072;42.144;25.200;2023-10-13T13:41:14;5.75;;;2.60;;
71148;SDS011;59072;42.144;25.200;2023-10-13T13:43:46;6.22;;;2.53;;
71148;SDS011;59072;42.144;25.200;2023-10-13T13:46:15;5.28;;;2.90;;
71148;SDS011;59072;42.144;25.200;2023-10-13T13:48:41;5.55;;;3.03;;
71148;SDS011;59072;42.144;25.200;2023-10-13T13:51:08;6.80;;;2.50;;
71148;SDS011;59072;42.144;25.200;2023-10-13T13:53:40;7.85;;;2.40;;
71148;SDS011;59072;42.144;25.200;2023-10-13T13:56:16;5.28;;;2.35;;
71148;SDS011;59072;42.144;25.200;2023-10-13T13:58:44;5.93;;;2.72;;
71148;SDS011;59072;42.144;25.200;2023-10-13T14:01:10;9.55;;;3.55;;
71148;SDS011;59072;42.144;25.200;2023-10-13T14:03:47;7.63;;;2.80;;
71148;SDS011;59072;42.144;25.200;2023-10-13T14:06:20;7.05;;;3.17;;
71148;SDS011;59072;42.144;25.200;2023-10-13T14:08:52;9.30;;;4.40;;
71148;SDS011;59072;42.144;25.200;2023-10-13T14:11:22;7.95;;;2.60;;
71148;SDS011;59072;42.144;25.200;2023-10-13T14:14:06;11.63;;;3.20;;
71148;SDS011;59072;42.144;25.200;2023-10-13T14:16:40;7.28;;;3.85;;
71148;SDS011;59072;42.144;25.200;2023-10-13T14:19:14;7.35;;;4.18;;
71148;SDS011;59072;42.144;25.200;2023-10-13T14:21:51;16.30;;;5.40;;
71148;SDS011;59072;42.144;25.200;2023-10-13T14:24:20;21.83;;;7.35;;
71148;SDS011;59072;42.144;25.200;2023-10-13T14:26:56;15.23;;;7.20;;
71148;SDS011;59072;42.144;25.200;2023-10-13T14:29:37;15.13;;;8.15;;
71148;SDS011;59072;42.144;25.200;2023-10-13T14:32:07;24.92;;;8.85;;
71148;SDS011;59072;42.144;25.200;2023-10-13T14:34:41;12.90;;;8.75;;
71148;SDS011;59072;42.144;25.200;2023-10-13T14:37:08;14.75;;;10.00;;
71148;SDS011;59072;42.144;25.200;2023-10-13T14:39:37;17.60;;;12.10;;
71148;SDS011;59072;42.144;25.200;2023-10-13T14:42:03;18.55;;;11.98;;
71148;SDS011;59072;42.144;25.200;2023-10-13T14:44:33;21.88;;;12.18;;
71148;SDS011;59072;42.144;25.200;2023-10-13T14:46:59;11.73;;;8.88;;
71148;SDS011;59072;42.144;25.200;2023-10-13T14:49:30;16.25;;;10.95;;
71148;SDS011;59072;42.144;25.200;2023-10-13T14:52:03;18.00;;;8.55;;
71148;SDS011;59072;42.144;25.200;2023-10-13T14:54:29;17.08;;;8.73;;
71148;SDS011;59072;42.144;25.200;2023-10-13T14:57:00;14.93;;;8.43;;
71148;SDS011;59072;42.144;25.200;2023-10-13T14:59:26;17.20;;;9.70;;
71148;SDS011;59072;42.144;25.200;2023-10-13T15:01:52;14.32;;;7.55;;
71148;SDS011;59072;42.144;25.200;2023-10-13T15:04:20;11.25;;;5.95;;
71148;SDS011;59072;42.144;25.200;2023-10-13T15:06:49;13.85;;;5.22;;
71148;SDS011;59072;42.144;25.200;2023-10-13T15:09:15;14.15;;;4.68;;
71148;SDS011;59072;42.144;25.200;2023-10-13T15:11:48;10.00;;;5.28;;
71148;SDS011;59072;42.144;25.200;2023-10-13T15:14:19;14.90;;;4.72;;
71148;SDS011;59072;42.144;25.200;2023-10-13T15:16:45;10.25;;;4.93;;
71148;SDS011;59072;42.144;25.200;2023-10-13T15:19:11;13.13;;;5.35;;
71148;SDS011;59072;42.144;25.200;2023-10-13T15:21:37;10.23;;;6.43;;
71148;SDS011;59072;42.144;25.200;2023-10-13T15:26:40;9.20;;;5.68;;
71148;SDS011;59072;42.144;25.200;2023-10-13T15:29:29;12.40;;;6.07;;
71148;SDS011;59072;42.144;25.200;2023-10-13T15:32:03;10.38;;;6.13;;
71148;SDS011;59072;42.144;25.200;2023-10-13T15:34:50;14.40;;;6.97;;
71148;SDS011;59072;42.144;25.200;2023-10-13T15:37:15;13.88;;;6.80;;
71148;SDS011;59072;42.144;25.200;2023-10-13T15:39:41;12.60;;;6.57;;
71148;SDS011;59072;42.144;25.200;2023-10-13T15:42:06;12.85;;;7.00;;
71148;SDS011;59072;42.144;25.200;2023-10-13T15:44:33;16.40;;;7.35;;
71148;SDS011;59072;42.144;25.200;2023-10-13T15:49:24;17.85;;;7.30;;